Time;durP1;ratioP1;P1;durP2;ratioP2;P2;SDS_P1;SDS_P2;PMS_P1;PMS_P2;Temp;Humidity;BMP_temperature;BMP_pressure;BME280_temperature;BME280_humidity;BME280_pressure;Samples;Min_cycle;Max_cycle;Signal;HPM_P1;HPM_P2
2022/12/24 00:00:37;;;;;;;2.25;0.55;;;;;;;10.22;98.75;95666.34;5051622;28;20045;-79
2022/12/24 00:03:03;;;;;;;0.85;0.60;;;;;;;10.22;98.68;95674.50;5051358;28;20049;-78
2022/12/24 00:05:30;;;;;;;0.52;0.45;;;;;;;10.16;99.04;95671.19;5051105;28;20045;-78
2022/12/24 00:07:56;;;;;;;0.60;0.32;;;;;;;10.13;99.38;95678.09;5051182;28;20052;-78
2022/12/24 00:10:23;;;;;;;1.15;0.52;;;;;;;10.10;99.55;95681.47;5050845;28;20044;-78
2022/12/24 00:12:51;;;;;;;2.20;0.50;;;;;;;10.16;99.91;95691.03;5051023;28;20045;-78
2022/12/24 00:15:17;;;;;;;0.90;0.55;;;;;;;10.06;100.00;95702.28;5050565;28;20049;-78
2022/12/24 00:17:44;;;;;;;2.30;0.60;;;;;;;10.12;100.00;95697.44;5050707;28;20051;-78
2022/12/24 00:20:10;;;;;;;3.47;0.80;;;;;;;10.06;100.00;95685.97;5050539;28;20488;-78
2022/12/24 00:22:39;;;;;;;1.38;0.55;;;;;;;9.98;99.22;95695.00;5051095;28;20049;-78
2022/12/24 00:25:06;;;;;;;2.13;0.90;;;;;;;9.89;98.84;95705.91;5050603;28;20045;-77
2022/12/24 00:27:33;;;;;;;1.10;0.50;;;;;;;9.82;98.28;95702.94;5050462;28;20052;-78
2022/12/24 00:30:01;;;;;;;1.02;0.50;;;;;;;9.86;96.51;95714.72;5051277;28;20045;-78
2022/12/24 00:32:27;;;;;;;2.08;0.70;;;;;;;9.68;97.90;95714.03;5050713;28;20040;-79
2022/12/24 00:34:54;;;;;;;2.20;0.60;;;;;;;9.50;98.64;95696.22;5043736;28;20511;-79
2022/12/24 00:37:20;;;;;;;1.17;0.70;;;;;;;9.43;99.21;95712.22;5051163;28;20041;-78
2022/12/24 00:39:46;;;;;;;2.05;0.63;;;;;;;9.34;100.00;95709.56;5049317;28;20049;-79
2022/12/24 00:42:13;;;;;;;1.33;0.63;;;;;;;9.25;100.00;95705.28;5050346;28;20052;-77
2022/12/24 00:44:39;;;;;;;4.93;0.70;;;;;;;9.26;100.00;95704.16;5050148;28;20048;-79
2022/12/24 00:47:07;;;;;;;1.50;0.95;;;;;;;9.27;99.62;95705.72;5049556;28;20045;-78
2022/12/24 00:49:33;;;;;;;2.47;1.13;;;;;;;9.28;98.78;95712.75;5050217;28;20049;-78
2022/12/24 00:52:01;;;;;;;4.00;1.10;;;;;;;9.39;97.68;95712.06;5050191;28;20095;-79
2022/12/24 00:54:28;;;;;;;3.50;1.15;;;;;;;9.39;98.24;95712.06;5061181;28;20044;-77
2022/12/24 00:56:55;;;;;;;5.18;1.33;;;;;;;9.38;99.30;95709.69;5062823;28;20496;-79
2022/12/24 00:59:21;;;;;;;4.28;1.67;;;;;;;9.33;100.00;95713.38;5049700;28;20045;-78
2022/12/24 01:01:48;;;;;;;4.47;1.88;;;;;;;9.32;100.00;95721.84;5049750;28;20130;-78
2022/12/24 01:06:59;;;;;;;3.90;1.10;;;;;;;9.33;100.00;95735.13;5050104;28;20056;-79
2022/12/24 01:09:26;;;;;;;3.42;0.93;;;;;;;9.34;100.00;95741.34;5049330;28;20045;-78
2022/12/24 01:11:52;;;;;;;2.05;1.35;;;;;;;9.34;100.00;95746.78;5050033;28;20048;-78
2022/12/24 01:14:19;;;;;;;2.42;1.13;;;;;;;9.34;100.00;95749.50;5049302;28;20052;-78
2022/12/24 01:16:45;;;;;;;3.35;1.65;;;;;;;9.30;100.00;95754.00;5049836;28;20124;-79
2022/12/24 01:19:12;;;;;;;3.28;1.10;;;;;;;9.28;100.00;95761.66;5049507;28;20044;-78
2022/12/24 01:21:40;;;;;;;3.05;1.45;;;;;;;9.27;100.00;95757.34;5049771;28;20055;-77
2022/12/24 01:24:07;;;;;;;2.22;0.80;;;;;;;9.20;100.00;95748.91;5049830;28;20695;-78
2022/12/24 01:26:33;;;;;;;1.52;0.70;;;;;;;9.29;100.00;95757.81;5049719;28;20500;-78
2022/12/24 01:28:59;;;;;;;2.25;0.88;;;;;;;9.25;100.00;95765.03;5049691;28;20507;-78
2022/12/24 01:31:26;;;;;;;2.63;1.00;;;;;;;9.22;100.00;95760.25;5049221;28;20056;-78
2022/12/24 01:33:52;;;;;;;1.05;0.73;;;;;;;9.18;100.00;95764.72;5041100;28;20056;-78
2022/12/24 01:36:19;;;;;;;5.57;1.15;;;;;;;9.17;100.00;95763.13;5048993;28;20451;-78
2022/12/24 01:38:47;;;;;;;1.90;0.82;;;;;;;9.23;100.00;95761.84;5049048;28;20056;-78
2022/12/24 01:44:25;;;;;;;3.97;0.95;;;;;;;9.23;100.00;95778.13;5049739;28;20195;-78
2022/12/24 01:46:56;;;;;;;3.92;0.80;;;;;;;9.20;100.00;95778.78;5049133;28;20040;-78
2022/12/24 01:49:22;;;;;;;1.55;0.70;;;;;;;9.14;100.00;95789.84;5049392;28;20091;-78
2022/12/24 01:51:53;;;;;;;3.13;1.40;;;;;;;9.11;100.00;95795.91;5049057;28;20044;-79
2022/12/24 01:54:26;;;;;;;3.20;1.30;;;;;;;9.11;100.00;95798.63;5048800;28;20037;-77
2022/12/24 01:56:56;;;;;;;4.28;1.10;;;;;;;9.13;100.00;95801.81;5050413;28;20079;-78
2022/12/24 01:59:22;;;;;;;1.48;0.85;;;;;;;9.12;100.00;95802.91;5053219;28;20056;-79
2022/12/24 02:01:50;;;;;;;1.67;0.90;;;;;;;9.08;100.00;95810.13;5053067;28;20053;-78
2022/12/24 02:04:28;;;;;;;1.10;0.90;;;;;;;9.00;100.00;95808.22;5052693;28;20053;-77
2022/12/24 02:06:55;;;;;;;3.45;1.08;;;;;;;9.05;100.00;95810.75;5045535;28;20048;-81
2022/12/24 02:09:22;;;;;;;1.67;1.30;;;;;;;9.01;100.00;95800.88;5052744;28;20045;-78
2022/12/24 02:11:49;;;;;;;1.75;0.95;;;;;;;9.00;100.00;95805.50;5053159;28;20048;-77
2022/12/24 02:14:16;;;;;;;3.45;1.30;;;;;;;8.96;100.00;95806.47;5052746;28;20041;-77
2022/12/24 02:16:53;;;;;;;2.38;1.20;;;;;;;8.91;100.00;95815.56;5053228;28;20075;-78
2022/12/24 02:19:46;;;;;;;4.55;1.10;;;;;;;8.97;100.00;95821.63;5052361;28;20064;-78
2022/12/24 02:22:15;;;;;;;3.78;1.50;;;;;;;9.01;100.00;95828.81;5045131;28;20254;-78
2022/12/24 02:25:09;;;;;;;4.00;1.70;;;;;;;9.05;100.00;95826.25;5052763;28;20044;-78
2022/12/24 02:27:54;;;;;;;2.65;1.20;;;;;;;9.03;100.00;95834.75;5052735;28;20048;-78
2022/12/24 02:30:23;;;;;;;2.92;1.30;;;;;;;9.06;100.00;95827.84;5052575;28;20041;-78
2022/12/24 02:33:04;;;;;;;1.55;1.05;;;;;;;9.15;100.00;95826.72;5052565;28;20041;-78
2022/12/24 02:35:42;;;;;;;2.70;1.70;;;;;;;9.12;99.45;95834.72;5063730;28;20101;-78
2022/12/24 02:38:15;;;;;;;2.55;1.15;;;;;;;9.17;99.64;95836.47;5063614;28;20515;-79
2022/12/24 02:40:47;;;;;;;4.20;1.50;;;;;;;9.12;99.20;95840.94;5072684;28;20094;-78
2022/12/24 02:43:18;;;;;;;2.05;0.85;;;;;;;9.20;99.22;95852.94;5072551;28;20615;-78
2022/12/24 02:45:50;;;;;;;2.88;1.25;;;;;;;9.15;98.61;95844.94;5072904;28;20045;-77
2022/12/24 02:48:20;;;;;;;2.88;1.30;;;;;;;9.22;98.20;95847.16;5072390;28;20044;-78
2022/12/24 02:50:57;;;;;;;4.70;1.42;;;;;;;9.23;97.95;95851.47;5071918;28;20504;-78
2022/12/24 02:53:24;;;;;;;3.13;1.42;;;;;;;9.24;97.49;95845.75;5072096;28;20067;-79
2022/12/24 02:56:05;;;;;;;2.58;1.33;;;;;;;9.27;96.89;95855.16;5072262;28;20045;-78
2022/12/24 02:58:43;;;;;;;2.97;1.38;;;;;;;9.33;96.91;95856.59;5072141;28;20491;-78
2022/12/24 03:01:20;;;;;;;2.90;1.30;;;;;;;9.25;96.83;95865.56;5072200;28;20068;-78
2022/12/24 03:03:58;;;;;;;2.45;1.30;;;;;;;9.27;96.69;95860.59;5071808;28;20048;-78
2022/12/24 03:06:33;;;;;;;3.72;0.90;;;;;;;9.35;95.98;95870.66;5072015;28;20032;-79
2022/12/24 03:09:08;;;;;;;2.65;0.73;;;;;;;9.29;95.54;95858.34;5064573;28;20097;-78
2022/12/24 03:11:38;;;;;;;1.33;0.80;;;;;;;9.32;95.18;95855.00;5072413;28;20037;-78
2022/12/24 03:14:04;;;;;;;1.88;0.70;;;;;;;9.28;95.21;95851.31;5071915;28;20036;-78
2022/12/24 03:16:32;;;;;;;2.63;1.10;;;;;;;9.24;95.09;95844.94;5072197;28;20067;-78
2022/12/24 03:19:00;;;;;;;2.38;0.95;;;;;;;9.32;93.74;95852.28;5072163;28;20041;-78
2022/12/24 03:21:31;;;;;;;4.50;1.00;;;;;;;9.37;93.66;95854.81;5071858;28;20036;-78
2022/12/24 03:23:57;;;;;;;2.88;1.05;;;;;;;9.34;93.17;95855.47;5064651;28;20064;-78
2022/12/24 03:26:25;;;;;;;4.60;0.82;;;;;;;9.35;92.78;95862.50;5071606;28;20044;-78
2022/12/24 03:28:52;;;;;;;1.67;0.80;;;;;;;9.32;92.83;95866.66;5071962;28;20052;-78
2022/12/24 03:31:19;;;;;;;3.78;1.20;;;;;;;9.27;92.68;95872.25;5071873;28;20036;-80
2022/12/24 03:33:47;;;;;;;4.63;1.13;;;;;;;9.23;92.96;95870.50;5071926;28;20052;-78
2022/12/24 03:36:14;;;;;;;2.92;1.27;;;;;;;9.21;93.01;95880.91;5071884;28;20049;-77
2022/12/24 03:38:41;;;;;;;2.15;1.17;;;;;;;9.19;92.83;95896.69;5071609;28;20052;-78
2022/12/24 03:41:08;;;;;;;5.68;1.40;;;;;;;9.32;92.11;95901.19;5071892;28;20044;-78
2022/12/24 03:43:34;;;;;;;3.28;1.15;;;;;;;9.31;91.33;95905.03;5071853;28;20043;-78
2022/12/24 03:46:04;;;;;;;1.88;1.15;;;;;;;9.29;91.43;95901.81;5072031;28;20044;-78
2022/12/24 03:48:30;;;;;;;2.13;0.95;;;;;;;9.30;91.14;95904.22;5071919;28;20032;-78
2022/12/24 03:50:58;;;;;;;3.10;1.13;;;;;;;9.30;90.78;95904.22;5072223;28;20048;-78
2022/12/24 03:53:24;;;;;;;3.10;0.93;;;;;;;9.31;90.50;95900.38;5071636;28;20047;-78
2022/12/24 03:55:51;;;;;;;3.22;0.98;;;;;;;9.32;90.18;95912.06;5071818;28;20376;-77
2022/12/24 03:58:17;;;;;;;4.05;1.33;;;;;;;9.33;90.13;95900.06;5073026;28;20048;-78
2022/12/24 04:00:44;;;;;;;3.13;1.33;;;;;;;9.33;89.22;95897.34;5073132;28;20052;-77
2022/12/24 04:03:10;;;;;;;3.55;1.35;;;;;;;9.42;88.54;95895.44;5071364;28;20048;-78
2022/12/24 04:05:39;;;;;;;3.58;1.35;;;;;;;9.44;87.64;95901.31;5071668;28;20040;-78
2022/12/24 04:08:07;;;;;;;3.15;1.52;;;;;;;9.44;88.17;95909.47;5071666;28;20096;-79
2022/12/24 04:10:34;;;;;;;2.60;0.70;;;;;;;9.46;88.10;95914.63;5073475;28;20043;-78
2022/12/24 04:13:00;;;;;;;3.67;0.90;;;;;;;9.48;87.25;95920.50;5073384;28;20048;-78
2022/12/24 04:15:27;;;;;;;2.20;0.88;;;;;;;9.39;87.94;95918.59;5072306;28;20037;-78
2022/12/24 04:17:54;;;;;;;2.13;1.00;;;;;;;9.46;86.96;95923.56;5064336;28;20056;-78
2022/12/24 04:20:21;;;;;;;3.08;0.90;;;;;;;9.48;86.82;95920.50;5070442;28;20094;-76
2022/12/24 04:22:47;;;;;;;12.20;5.35;;;;;;;9.51;86.53;95931.56;5072355;28;20056;-77
2022/12/24 04:25:15;;;;;;;3.17;1.27;;;;;;;9.51;86.93;95930.75;5071913;28;20052;-77
2022/12/24 04:27:42;;;;;;;6.38;1.23;;;;;;;9.48;86.90;95926.75;5071426;28;20052;-77
2022/12/24 04:30:09;;;;;;;5.00;1.50;;;;;;;9.47;87.16;95932.50;5071191;28;20075;-78
2022/12/24 04:32:36;;;;;;;8.27;0.98;;;;;;;9.48;87.19;95934.91;5070887;28;20499;-78
2022/12/24 04:35:02;;;;;;;4.93;1.00;;;;;;;9.51;87.25;95947.06;5071225;28;20067;-78
2022/12/24 04:37:28;;;;;;;2.88;1.05;;;;;;;9.51;87.20;95937.00;5072055;28;20071;-78
2022/12/24 04:39:55;;;;;;;3.50;1.00;;;;;;;9.53;86.96;95951.03;5072479;28;20051;-79
2022/12/24 04:42:23;;;;;;;4.20;1.25;;;;;;;9.48;86.89;95953.94;5072941;28;20044;-78
2022/12/24 04:44:50;;;;;;;4.72;1.17;;;;;;;9.51;86.38;95955.22;5072540;28;20056;-78
2022/12/24 04:47:16;;;;;;;2.53;1.23;;;;;;;9.50;87.01;95945.44;5072246;28;20048;-78
2022/12/24 04:49:43;;;;;;;3.00;0.90;;;;;;;9.48;86.97;95943.06;5072519;28;20048;-77
2022/12/24 04:52:09;;;;;;;3.47;1.15;;;;;;;9.46;87.08;95942.59;5072297;28;20056;-78
2022/12/24 04:54:36;;;;;;;3.10;1.13;;;;;;;9.44;86.98;95942.09;5073138;28;20044;-78
2022/12/24 04:57:02;;;;;;;2.28;0.90;;;;;;;9.47;86.98;95952.34;5073170;28;20492;-78
2022/12/24 04:59:30;;;;;;;4.10;1.10;;;;;;;9.46;87.18;95956.19;5073787;28;20614;-78
2022/12/24 05:01:57;;;;;;;2.72;1.17;;;;;;;9.43;87.34;95962.25;5073289;28;20066;-78
2022/12/24 05:04:23;;;;;;;4.55;1.23;;;;;;;9.47;87.16;95968.63;5073632;28;20476;-78
2022/12/24 05:06:50;;;;;;;3.95;0.95;;;;;;;9.47;87.04;95968.63;5074685;28;20047;-79
2022/12/24 05:09:16;;;;;;;5.93;1.20;;;;;;;9.53;87.08;95969.28;5074122;28;20574;-78
2022/12/24 05:11:42;;;;;;;3.17;0.90;;;;;;;9.53;86.24;95977.44;5074671;28;20650;-79
2022/12/24 05:14:09;;;;;;;2.72;0.80;;;;;;;9.52;86.69;95979.34;5074177;28;20456;-78
2022/12/24 05:16:38;;;;;;;3.15;1.00;;;;;;;9.54;86.41;95977.09;5074282;28;20048;-78
2022/12/24 05:19:04;;;;;;;2.83;0.80;;;;;;;9.50;86.94;95973.44;5074505;28;20079;-79
2022/12/24 05:21:31;;;;;;;2.70;1.00;;;;;;;9.53;86.82;95980.16;5075715;28;20045;-79
2022/12/24 05:26:44;;;;;;;1.20;0.65;;;;;;;9.42;88.22;95982.38;5069673;28;20074;-77
2022/12/24 05:29:11;;;;;;;2.28;0.85;;;;;;;9.36;88.68;95979.03;5069567;28;20051;-78
2022/12/24 05:31:41;;;;;;;3.88;1.30;;;;;;;9.32;89.76;95969.91;5070033;28;20609;-78
2022/12/24 05:34:08;;;;;;;5.25;1.40;;;;;;;9.25;91.18;95999.47;5069262;28;20051;-77
2022/12/24 05:36:34;;;;;;;3.88;1.17;;;;;;;8.97;94.33;95993.50;5069541;28;20044;-78
2022/12/24 05:39:01;;;;;;;4.82;1.13;;;;;;;8.82;96.23;95978.47;5069210;28;20055;-79
2022/12/24 05:41:28;;;;;;;2.70;1.13;;;;;;;8.69;97.56;95987.53;5061082;28;20507;-78
2022/12/24 05:43:54;;;;;;;3.25;1.20;;;;;;;8.74;95.58;95995.53;5061760;28;20045;-78
2022/12/24 05:46:22;;;;;;;3.85;1.35;;;;;;;8.78;95.97;96001.13;5068873;28;20047;-78
2022/12/24 05:48:51;;;;;;;2.97;1.10;;;;;;;8.81;95.88;96008.63;5069279;28;20095;-78
2022/12/24 05:51:21;;;;;;;5.18;1.30;;;;;;;8.74;96.12;96017.25;5069169;28;20070;-78
2022/12/24 05:53:48;;;;;;;5.55;1.33;;;;;;;8.66;96.95;96011.78;5069327;28;20049;-79
2022/12/24 05:56:16;;;;;;;2.42;1.10;;;;;;;8.66;97.61;96026.16;5068786;28;20041;-77
2022/12/24 05:58:43;;;;;;;2.55;1.35;;;;;;;8.62;97.78;96045.00;5069292;28;20487;-79
2022/12/24 06:01:11;;;;;;;3.70;0.95;;;;;;;8.53;98.93;96049.56;5069124;28;20123;-78
2022/12/24 06:03:38;;;;;;;4.47;1.50;;;;;;;8.48;100.00;96052.41;5069023;28;20056;-78
2022/12/24 06:06:09;;;;;;;4.13;1.30;;;;;;;8.45;97.93;96054.94;5068930;28;20044;-78
2022/12/24 06:08:36;;;;;;;6.47;1.05;;;;;;;8.25;93.35;96064.41;5068737;28;20531;-78
2022/12/24 06:11:05;;;;;;;4.50;0.93;;;;;;;7.86;95.62;96057.72;5068935;28;20047;-77
2022/12/24 06:13:32;;;;;;;2.78;1.00;;;;;;;7.62;98.62;96055.31;5069605;28;20041;-79
2022/12/24 06:16:01;;;;;;;3.35;0.80;;;;;;;7.36;100.00;96054.28;5070295;28;20499;-80
2022/12/24 06:18:29;;;;;;;5.82;0.90;;;;;;;7.19;100.00;96065.75;5054818;28;20120;-80
2022/12/24 06:20:57;;;;;;;5.05;1.00;;;;;;;7.07;100.00;96069.75;5064344;28;20048;-79
2022/12/24 06:23:25;;;;;;;4.75;0.90;;;;;;;7.11;100.00;96052.94;5049507;28;20053;-78
2022/12/24 06:25:52;;;;;;;3.40;1.20;;;;;;;7.18;100.00;96047.91;5049904;28;20043;-78
2022/12/24 06:28:19;;;;;;;1.27;0.70;;;;;;;7.10;100.00;96052.13;5048842;28;20611;-78
2022/12/24 06:30:47;;;;;;;4.07;1.08;;;;;;;7.07;100.00;96042.69;5049509;28;20628;-78
2022/12/24 06:33:13;;;;;;;6.13;1.02;;;;;;;7.04;100.00;96043.28;5048984;28;20033;-78
2022/12/24 06:35:42;;;;;;;2.72;0.90;;;;;;;7.04;100.00;96048.69;5049440;28;20124;-78
2022/12/24 06:38:08;;;;;;;1.70;0.70;;;;;;;7.05;100.00;96058.44;5048301;28;20056;-78
2022/12/24 06:40:38;;;;;;;3.15;1.02;;;;;;;7.03;100.00;96054.44;5049248;28;20045;-78
2022/12/24 06:43:04;;;;;;;5.32;1.70;;;;;;;7.05;100.00;96072.00;5054682;28;20037;-78
2022/12/24 06:45:31;;;;;;;5.35;1.00;;;;;;;7.13;100.00;96075.88;5060831;28;20045;-78
2022/12/24 06:47:59;;;;;;;7.18;1.25;;;;;;;7.18;100.00;96085.81;5052992;28;20098;-78
2022/12/24 06:50:25;;;;;;;4.97;1.20;;;;;;;7.28;100.00;96080.19;5052552;28;20044;-77
2022/12/24 06:52:52;;;;;;;5.40;1.00;;;;;;;7.32;100.00;96086.59;5052692;28;20049;-78
2022/12/24 06:55:19;;;;;;;3.65;1.20;;;;;;;7.39;100.00;96086.97;5052391;28;20053;-78
2022/12/24 06:57:47;;;;;;;4.15;1.15;;;;;;;7.45;100.00;96091.19;5053095;28;20052;-79
2022/12/24 07:00:14;;;;;;;4.25;1.10;;;;;;;7.51;100.00;96089.16;5052152;28;20037;-76
2022/12/24 07:02:41;;;;;;;3.45;1.30;;;;;;;7.51;100.00;96089.94;5051999;28;20052;-77
2022/12/24 07:05:09;;;;;;;4.20;1.50;;;;;;;7.53;100.00;96098.59;5052053;28;20049;-77
2022/12/24 07:07:37;;;;;;;2.38;1.08;;;;;;;7.57;100.00;96099.59;5053228;28;20064;-78
2022/12/24 07:10:05;;;;;;;2.95;1.20;;;;;;;7.62;100.00;96097.84;5052470;28;20044;-78
2022/12/24 07:12:32;;;;;;;3.63;1.27;;;;;;;7.64;100.00;96109.22;5057694;28;20041;-78
2022/12/24 07:15:00;;;;;;;2.97;1.30;;;;;;;7.67;100.00;96103.97;5060917;28;20047;-78
2022/12/24 07:17:26;;;;;;;5.28;1.70;;;;;;;7.68;100.00;96115.63;5060044;28;20049;-78
2022/12/24 07:19:53;;;;;;;4.43;1.63;;;;;;;7.72;100.00;96114.69;5044552;28;20037;-78
2022/12/24 07:22:19;;;;;;;3.20;1.35;;;;;;;7.76;100.00;96117.59;5052562;28;20132;-78
2022/12/24 07:24:46;;;;;;;3.78;1.30;;;;;;;7.78;100.00;96116.22;5052857;28;20052;-78
2022/12/24 07:27:12;;;;;;;4.55;1.65;;;;;;;7.81;100.00;96121.00;5052664;28;20043;-78
2022/12/24 07:29:40;;;;;;;5.65;1.70;;;;;;;7.81;100.00;96121.00;5052782;28;20049;-78
2022/12/24 07:32:08;;;;;;;4.80;1.60;;;;;;;7.84;100.00;96133.97;5052533;28;20064;-78
2022/12/24 07:34:34;;;;;;;4.13;1.40;;;;;;;7.85;100.00;96132.03;5053492;28;20041;-78
2022/12/24 07:37:01;;;;;;;5.13;1.70;;;;;;;7.85;100.00;96129.34;5053808;28;20049;-78
2022/12/24 07:39:28;;;;;;;2.75;1.27;;;;;;;7.83;100.00;96134.28;5056097;28;20048;-78
2022/12/24 07:41:54;;;;;;;3.00;1.60;;;;;;;7.87;100.00;96139.88;5074537;28;20047;-78
2022/12/24 07:44:21;;;;;;;5.95;1.65;;;;;;;7.88;100.00;96142.25;5074657;28;20040;-78
2022/12/24 07:46:47;;;;;;;4.72;1.65;;;;;;;7.90;100.00;96145.47;5073481;28;20048;-78
2022/12/24 07:49:15;;;;;;;5.45;1.70;;;;;;;7.90;100.00;96145.47;5080816;28;20051;-78
2022/12/24 07:51:41;;;;;;;3.42;1.77;;;;;;;7.89;100.00;96148.50;5081618;28;20052;-78
2022/12/24 07:54:08;;;;;;;4.20;2.08;;;;;;;7.95;100.00;96150.00;5070929;28;20044;-79
2022/12/24 07:56:34;;;;;;;7.68;2.22;;;;;;;7.93;100.00;96155.69;5079289;28;20044;-78
2022/12/24 07:59:01;;;;;;;4.63;1.67;;;;;;;7.77;100.00;96151.72;5082307;28;20045;-77
2022/12/24 08:01:27;;;;;;;7.43;1.90;;;;;;;7.62;100.00;96154.75;5073698;28;20037;-78
2022/12/24 08:03:54;;;;;;;4.15;1.70;;;;;;;7.64;100.00;96163.41;5076155;28;20044;-79
2022/12/24 08:06:22;;;;;;;2.25;1.27;;;;;;;7.70;100.00;96167.63;5080529;28;20040;-78
2022/12/24 08:08:49;;;;;;;5.45;1.45;;;;;;;7.72;100.00;96162.69;5067877;28;20408;-76
2022/12/24 08:11:15;;;;;;;3.60;1.60;;;;;;;7.71;100.00;96163.78;5059719;28;20048;-78
2022/12/24 08:13:42;;;;;;;3.83;1.30;;;;;;;7.73;100.00;96175.16;5057144;28;20041;-78
2022/12/24 08:16:08;;;;;;;2.38;0.75;;;;;;;7.79;99.65;96171.22;5057153;28;20048;-78
2022/12/24 08:18:35;;;;;;;2.10;0.82;;;;;;;7.87;96.88;96172.41;5054657;28;20067;-78
2022/12/24 08:21:01;;;;;;;1.25;0.80;;;;;;;7.98;93.87;96174.56;5055170;28;20060;-78
2022/12/24 08:23:29;;;;;;;1.90;0.65;;;;;;;8.01;92.22;96179.38;5072581;28;20044;-78
2022/12/24 08:25:56;;;;;;;1.05;0.65;;;;;;;8.03;91.03;96182.59;5073749;28;20041;-79
2022/12/24 08:28:22;;;;;;;2.17;0.73;;;;;;;8.09;89.65;96170.53;5072098;28;20399;-77
2022/12/24 08:30:50;;;;;;;1.23;0.50;;;;;;;8.17;88.08;96187.19;5074695;28;20040;-77
2022/12/24 08:33:17;;;;;;;1.92;0.75;;;;;;;8.22;87.30;96193.28;5072244;28;20242;-78
2022/12/24 08:35:47;;;;;;;3.38;0.77;;;;;;;8.26;86.88;96201.63;5073429;28;20052;-78
2022/12/24 08:38:14;;;;;;;1.92;0.70;;;;;;;8.28;86.19;96196.69;5072142;28;20041;-76
2022/12/24 08:40:41;;;;;;;2.58;0.82;;;;;;;8.33;85.18;96199.28;5072288;28;20063;-78
2022/12/24 08:43:08;;;;;;;1.80;0.75;;;;;;;8.36;85.10;96201.44;5072184;28;20041;-76
2022/12/24 08:45:35;;;;;;;2.38;0.60;;;;;;;8.43;84.24;96201.00;5074349;28;20041;-78
2022/12/24 08:48:02;;;;;;;1.88;0.80;;;;;;;8.51;84.21;96203.78;5077460;28;20036;-78
2022/12/24 08:50:28;;;;;;;4.72;0.70;;;;;;;8.51;83.84;96208.38;5078924;28;20040;-78
2022/12/24 08:52:55;;;;;;;1.05;0.68;;;;;;;8.59;83.39;96205.72;5078962;28;20045;-77
2022/12/24 08:55:21;;;;;;;3.47;0.70;;;;;;;8.59;83.28;96213.88;5078831;28;20051;-78
2022/12/24 08:57:49;;;;;;;1.27;0.70;;;;;;;8.59;83.67;96219.31;5077975;28;20056;-78
2022/12/24 09:00:16;;;;;;;2.65;0.70;;;;;;;8.58;83.77;96222.34;5077334;28;20459;-78
2022/12/24 09:02:42;;;;;;;2.45;0.75;;;;;;;8.59;82.39;96227.44;5077644;28;20052;-78
2022/12/24 09:05:10;;;;;;;3.22;0.77;;;;;;;8.59;83.11;96232.88;5077400;28;20045;-78
2022/12/24 09:07:36;;;;;;;2.25;0.85;;;;;;;8.60;82.88;96234.47;5076583;28;20051;-77
2022/12/24 09:10:04;;;;;;;1.65;0.73;;;;;;;8.68;82.61;96229.44;5076371;28;20045;-78
2022/12/24 09:12:30;;;;;;;2.05;0.80;;;;;;;8.70;80.96;96238.06;5075844;28;20048;-77
2022/12/24 09:14:58;;;;;;;2.22;0.70;;;;;;;8.73;80.30;96232.03;5074229;28;20052;-78
2022/12/24 09:17:24;;;;;;;3.83;1.00;;;;;;;8.78;80.36;96229.19;5074707;28;20056;-77
2022/12/24 09:19:51;;;;;;;2.25;1.00;;;;;;;8.79;80.50;96236.22;5072717;28;20048;-78
2022/12/24 09:22:17;;;;;;;1.40;0.70;;;;;;;8.79;79.62;96236.22;5070643;28;20040;-77
2022/12/24 09:24:44;;;;;;;3.00;0.80;;;;;;;8.79;80.76;96242.44;5070739;28;20040;-79
2022/12/24 09:27:10;;;;;;;2.67;0.70;;;;;;;8.80;80.39;96244.03;5071050;28;20047;-78
2022/12/24 09:29:39;;;;;;;1.38;0.60;;;;;;;8.80;80.79;96254.09;5070424;28;20048;-78
2022/12/24 09:32:07;;;;;;;2.22;0.70;;;;;;;8.78;80.47;96242.75;5070172;28;20131;-77
2022/12/24 09:34:34;;;;;;;1.35;0.73;;;;;;;8.83;80.47;96253.50;5072346;28;20044;-78
2022/12/24 09:37:01;;;;;;;2.15;0.80;;;;;;;8.77;80.94;96260.97;5071252;28;20044;-78
2022/12/24 09:39:28;;;;;;;4.80;0.93;;;;;;;8.84;80.87;96265.97;5069829;28;20051;-78
2022/12/24 09:42:06;;;;;;;1.15;0.52;;;;;;;8.86;80.05;96261.00;5070967;28;20048;-77
2022/12/24 09:44:41;;;;;;;2.80;0.60;;;;;;;8.85;80.20;96262.13;5050251;28;20459;-79
2022/12/24 09:47:16;;;;;;;3.28;0.82;;;;;;;8.85;78.78;96262.94;5049406;28;20495;-78
2022/12/24 09:49:47;;;;;;;2.60;0.57;;;;;;;8.99;78.75;96273.75;5057866;28;20053;-78
2022/12/24 09:52:23;;;;;;;1.75;0.50;;;;;;;8.96;78.45;96258.06;5065879;28;20047;-78
2022/12/24 09:54:55;;;;;;;7.97;3.15;;;;;;;8.95;77.69;96267.31;5049170;28;20048;-77
2022/12/24 09:57:28;;;;;;;2.28;1.00;;;;;;;9.02;77.32;96264.16;5049503;28;20056;-78
2022/12/24 09:59:55;;;;;;;1.63;0.80;;;;;;;8.95;76.58;96277.38;5041832;28;20041;-78
2022/12/24 10:02:23;;;;;;;1.67;0.57;;;;;;;8.88;76.36;96266.97;5049104;28;20639;-78
2022/12/24 10:04:50;;;;;;;3.63;0.77;;;;;;;8.90;77.08;96275.59;5052819;28;20049;-77
2022/12/24 10:07:29;;;;;;;2.20;0.75;;;;;;;8.89;77.15;96268.56;5050588;28;20049;-78
2022/12/24 10:10:07;;;;;;;1.40;0.60;;;;;;;8.96;76.34;96282.50;5064756;28;20500;-78
2022/12/24 10:12:41;;;;;;;3.75;0.70;;;;;;;8.93;75.90;96280.41;5069059;28;20065;-78
2022/12/24 10:15:15;;;;;;;2.90;0.80;;;;;;;8.98;77.07;96283.00;5069015;28;20044;-77
2022/12/24 10:17:55;;;;;;;4.22;1.00;;;;;;;8.98;77.32;96288.44;5070521;28;20045;-78
2022/12/24 10:20:32;;;;;;;3.13;0.60;;;;;;;9.00;75.17;96277.25;5073296;28;20055;-77
2022/12/24 10:23:06;;;;;;;2.08;0.80;;;;;;;9.00;75.51;96279.97;5058330;28;20694;-77
2022/12/24 10:25:38;;;;;;;3.78;0.88;;;;;;;9.03;75.64;96274.72;5060965;28;20045;-78
2022/12/24 10:28:14;;;;;;;3.15;0.77;;;;;;;9.27;74.90;96289.88;5053917;28;20177;-78
2022/12/24 10:30:42;;;;;;;2.97;0.90;;;;;;;9.59;73.85;96280.59;5053732;28;20091;-78
2022/12/24 10:33:16;;;;;;;3.15;0.90;;;;;;;9.52;73.67;96280.28;5052636;28;20048;-77
2022/12/24 10:35:47;;;;;;;4.25;1.15;;;;;;;9.63;73.09;96282.41;5053493;28;20056;-78
2022/12/24 10:38:14;;;;;;;2.70;0.63;;;;;;;9.57;70.40;96294.53;5052897;28;20041;-77
2022/12/24 10:40:44;;;;;;;2.25;0.70;;;;;;;9.53;72.38;96298.97;5053506;28;20045;-77
2022/12/24 10:43:15;;;;;;;1.83;0.70;;;;;;;9.51;72.41;96279.47;5052118;28;20523;-77
2022/12/24 10:45:45;;;;;;;2.95;0.50;;;;;;;9.54;72.35;96284.25;5053424;28;20064;-77
2022/12/24 10:48:19;;;;;;;4.53;0.80;;;;;;;9.56;72.04;96297.56;5052731;28;20072;-77
2022/12/24 10:50:54;;;;;;;3.83;0.82;;;;;;;9.60;71.02;96285.72;5053615;28;20045;-76
2022/12/24 10:53:24;;;;;;;1.83;0.57;;;;;;;9.73;71.78;96286.75;5052555;28;20053;-77
2022/12/24 10:56:00;;;;;;;2.95;0.95;;;;;;;9.99;70.82;96292.28;5052333;28;20053;-77
2022/12/24 10:58:26;;;;;;;5.18;0.80;;;;;;;10.20;69.42;96298.75;5052420;28;20052;-77
2022/12/24 11:00:54;;;;;;;3.47;0.90;;;;;;;10.37;69.33;96299.94;5044889;28;20044;-77
2022/12/24 11:03:30;;;;;;;4.60;1.00;;;;;;;10.26;68.58;96293.19;5051650;28;20052;-77
2022/12/24 11:06:08;;;;;;;3.70;1.13;;;;;;;10.15;68.52;96295.38;5044337;28;20511;-77
2022/12/24 11:08:35;;;;;;;3.40;0.80;;;;;;;10.17;70.46;96299.38;5051841;28;20048;-77
2022/12/24 11:11:05;;;;;;;18.50;7.57;;;;;;;10.08;68.49;96301.28;5052095;28;20037;-76
2022/12/24 11:13:34;;;;;;;2.03;0.82;;;;;;;10.23;67.25;96296.50;5051655;28;20052;-79
2022/12/24 11:16:04;;;;;;;5.10;1.00;;;;;;;10.11;67.81;96291.69;5052406;28;20049;-80
2022/12/24 11:18:32;;;;;;;2.55;0.90;;;;;;;10.25;66.96;96307.91;5072167;28;20040;-78
2022/12/24 11:20:59;;;;;;;3.80;1.00;;;;;;;10.24;66.54;96292.72;5072049;28;20048;-79
2022/12/24 11:23:28;;;;;;;3.55;0.82;;;;;;;10.14;66.74;96297.28;5071559;28;20566;-78
2022/12/24 11:25:57;;;;;;;1.95;0.75;;;;;;;10.12;67.08;96294.06;5055733;28;20064;-78
2022/12/24 11:28:25;;;;;;;6.88;1.00;;;;;;;10.24;67.06;96292.72;5062104;28;20052;-77
2022/12/24 11:30:59;;;;;;;2.70;0.80;;;;;;;10.17;67.04;96290.41;5051815;28;20041;-79
2022/12/24 11:33:26;;;;;;;3.40;0.80;;;;;;;10.06;66.45;96284.47;5051500;28;20102;-78
2022/12/24 11:36:00;;;;;;;2.10;0.88;;;;;;;10.02;66.95;96286.19;5051770;28;20041;-78
2022/12/24 11:38:28;;;;;;;2.25;0.70;;;;;;;10.00;67.80;96291.16;5051362;28;20041;-79
2022/12/24 11:41:07;;;;;;;3.78;0.80;;;;;;;10.01;67.92;96281.09;5043969;28;20048;-78
2022/12/24 11:43:57;;;;;;;3.70;0.85;;;;;;;10.01;67.69;96290.03;5064390;28;20040;-78
2022/12/24 11:46:37;;;;;;;3.45;0.82;;;;;;;10.00;67.76;96284.94;5071371;28;20044;-79
2022/12/24 11:49:13;;;;;;;3.13;0.73;;;;;;;9.93;67.65;96288.13;5056339;28;20132;-78
2022/12/24 11:52:00;;;;;;;3.70;0.90;;;;;;;9.96;67.79;96292.09;5071314;28;20040;-78
2022/12/24 11:54:31;;;;;;;4.95;1.10;;;;;;;9.97;68.72;96294.53;5071275;28;20044;-79